Terminal Aerodrome Forecast
Issued by NWS

Current Version | Previous Version | Text Only | Print | Product List | Glossary On
Versions: 1 2 3 4 5 6 7 8 9 10 11 12 13 14 15 16 17 18 19 20 21 22 23
000
FTUS41 KOKX 180500 CCA
TAFHPN
TAF COR
KHPN 180541Z 1806/1906 30013KT P6SM SCT035 BKN050
     FM180700 30014G22KT P6SM SCT035
      TEMPO 1807/1810 P6SM -SHRA BKN035
     FM181400 31017G25KT P6SM SCT035
     FM182200 31012KT P6SM SCT035
     FM190100 30008KT P6SM SCT035
      AMD NOT SKED=

USA.gov is the U.S. government's official web portal to all federal, state and local government web resources and services.